Time;durP1;ratioP1;P1;durP2;ratioP2;P2;SDS_P1;SDS_P2;PMS_P1;PMS_P2;Temp;Humidity;BMP_temperature;BMP_pressure;BME280_temperature;BME280_humidity;BME280_pressure;Samples;Min_cycle;Max_cycle;Signal;HPM_P1;HPM_P2
2023/06/21 00:03:13;;;;;;;14.10;12.70;;;;;;;22.25;54.58;99392.36;435996;1251;139312;-66
2023/06/21 00:13:17;;;;;;;15.90;14.30;;;;;;;22.16;54.70;99382.35;436275;1254;140205;-65
2023/06/21 00:23:20;;;;;;;15.90;14.50;;;;;;;21.96;54.88;99389.04;436091;1251;139167;-65
2023/06/21 00:33:23;;;;;;;15.10;13.70;;;;;;;21.79;55.44;99386.88;435921;1250;140738;-65
2023/06/21 00:43:25;;;;;;;16.60;15.10;;;;;;;21.63;55.90;99384.25;436003;1251;139754;-65
2023/06/21 00:53:30;;;;;;;15.80;14.40;;;;;;;21.51;56.39;99386.80;436060;1254;139249;-66
2023/06/21 01:03:35;;;;;;;14.80;13.50;;;;;;;21.42;56.66;99386.95;437382;1251;139327;-64
2023/06/21 01:13:50;;;;;;;16.70;14.90;;;;;;;21.35;56.85;99392.21;436443;1256;139090;-65
2023/06/21 01:24:10;;;;;;;15.50;14.00;;;;;;;21.25;57.14;99388.61;436542;1255;140009;-65
2023/06/21 01:34:13;;;;;;;15.90;14.60;;;;;;;21.17;57.48;99398.70;436402;1255;139762;-65
2023/06/21 01:44:16;;;;;;;17.20;15.70;;;;;;;21.09;57.69;99392.41;437257;1254;139688;-64
2023/06/21 01:54:22;;;;;;;17.20;15.70;;;;;;;20.96;57.93;99385.81;436475;1251;139745;-65
2023/06/21 02:04:28;;;;;;;17.80;16.00;;;;;;;20.84;58.40;99377.23;436089;1253;138651;-65
2023/06/21 02:14:31;;;;;;;17.10;15.10;;;;;;;20.74;58.61;99375.92;437223;1255;139036;-65
2023/06/21 02:24:34;;;;;;;17.10;15.50;;;;;;;20.66;58.85;99376.45;435951;1251;139286;-65
2023/06/21 02:34:38;;;;;;;17.80;16.00;;;;;;;20.57;59.14;99375.09;436322;1254;140220;-67
2023/06/21 02:44:41;;;;;;;19.00;17.20;;;;;;;20.49;59.35;99377.44;437158;1255;140286;-66
2023/06/21 02:54:44;;;;;;;18.10;16.30;;;;;;;20.40;59.58;99382.78;436448;1254;140468;-66
2023/06/21 03:04:47;;;;;;;18.80;16.20;;;;;;;20.42;59.84;99379.94;436453;1253;139412;-66
2023/06/21 03:14:50;;;;;;;17.80;16.20;;;;;;;20.55;59.85;99380.63;436004;1256;143238;-65
2023/06/21 03:24:53;;;;;;;16.90;15.40;;;;;;;20.84;59.51;99389.13;436065;1256;141796;-66
2023/06/21 03:34:59;;;;;;;18.70;17.00;;;;;;;21.51;58.76;99386.42;436156;1257;140605;-67
2023/06/21 03:45:02;;;;;;;17.80;16.10;;;;;;;21.84;57.69;99381.87;436137;1255;140274;-66
2023/06/21 03:55:08;;;;;;;17.40;15.80;;;;;;;22.39;56.97;99392.71;436268;1254;139462;-68
2023/06/21 04:05:11;;;;;;;17.10;15.50;;;;;;;22.61;55.72;99402.64;436528;1255;138883;-67
2023/06/21 04:15:16;;;;;;;17.40;15.70;;;;;;;22.11;56.14;99402.73;436172;1254;140567;-66
2023/06/21 04:25:19;;;;;;;18.00;16.20;;;;;;;21.66;56.73;99397.68;436253;1256;139267;-66
2023/06/21 04:35:22;;;;;;;18.30;16.60;;;;;;;21.36;57.69;99385.47;436496;1254;138900;-66
2023/06/21 04:45:26;;;;;;;19.30;17.60;;;;;;;21.19;58.17;99387.55;436686;1251;139140;-67
2023/06/21 04:55:29;;;;;;;19.30;17.40;;;;;;;21.18;58.59;99410.98;436316;1251;139052;-65
2023/06/21 05:05:33;;;;;;;18.60;16.90;;;;;;;21.10;58.95;99419.22;436112;1256;139142;-66
2023/06/21 05:15:37;;;;;;;17.00;15.60;;;;;;;21.18;59.26;99427.02;436221;1254;139998;-67
2023/06/21 05:25:40;;;;;;;17.90;16.30;;;;;;;21.45;59.04;99427.02;435927;1254;140189;-66
2023/06/21 05:35:43;;;;;;;27.60;17.50;;;;;;;21.71;58.69;99429.46;436408;1254;139993;-66
2023/06/21 05:45:46;;;;;;;18.50;16.80;;;;;;;22.07;58.19;99419.00;436342;1254;140437;-66
2023/06/21 05:55:49;;;;;;;17.40;15.30;;;;;;;22.29;57.67;99416.87;436439;1251;139719;-68
2023/06/21 06:05:53;;;;;;;17.90;15.90;;;;;;;22.79;57.19;99429.06;436233;1255;138716;-67
2023/06/21 06:15:56;;;;;;;18.30;16.50;;;;;;;23.31;56.09;99440.59;436546;1254;139826;-68
2023/06/21 06:25:59;;;;;;;16.20;14.70;;;;;;;23.58;55.46;99450.25;436016;1256;139245;-67
2023/06/21 06:36:02;;;;;;;18.20;16.70;;;;;;;24.22;54.61;99454.34;436023;1256;140210;-67
2023/06/21 06:46:05;;;;;;;17.50;16.00;;;;;;;24.62;53.70;99452.04;436491;1254;139759;-67
2023/06/21 06:56:08;;;;;;;17.90;16.20;;;;;;;24.89;53.46;99446.19;436030;1251;140111;-68
2023/06/21 07:06:11;;;;;;;17.70;16.20;;;;;;;25.21;53.10;99430.48;436280;1251;140417;-67
2023/06/21 07:16:15;;;;;;;18.60;17.00;;;;;;;25.51;52.86;99416.79;436154;1256;138912;-67
2023/06/21 07:26:18;;;;;;;17.40;15.90;;;;;;;26.33;52.28;99418.35;436102;1254;139116;-66
2023/06/21 07:36:21;;;;;;;16.70;15.00;;;;;;;27.28;50.86;99404.52;435969;1257;139617;-65
2023/06/21 07:46:24;;;;;;;16.60;15.10;;;;;;;28.47;49.44;99404.63;436095;1257;139300;-68
2023/06/21 07:56:28;;;;;;;16.40;15.00;;;;;;;29.21;47.51;99415.84;436097;1251;140680;-67
2023/06/21 08:06:31;;;;;;;17.20;15.40;;;;;;;29.04;46.71;99428.09;435953;1256;139893;-66
2023/06/21 08:16:34;;;;;;;17.00;15.50;;;;;;;28.65;47.25;99427.16;435967;1254;139755;-67
2023/06/21 08:26:37;;;;;;;15.40;14.30;;;;;;;28.45;47.68;99422.22;436147;1254;139429;-67
2023/06/21 08:36:40;;;;;;;17.00;15.10;;;;;;;28.10;48.17;99419.26;435790;1256;139416;-67
2023/06/21 08:46:47;;;;;;;16.30;14.80;;;;;;;27.97;48.56;99420.14;435819;1254;139897;-66
2023/06/21 08:56:55;;;;;;;18.90;16.20;;;;;;;28.02;48.61;99424.46;435783;1254;138616;-67
2023/06/21 09:06:58;;;;;;;16.30;15.00;;;;;;;28.20;48.51;99426.05;435842;1254;139152;-67
2023/06/21 09:17:02;;;;;;;18.50;16.70;;;;;;;28.50;48.41;99421.18;436339;1254;139302;-67
2023/06/21 09:27:06;;;;;;;15.60;13.80;;;;;;;28.80;48.28;99426.23;435645;1251;139232;-67
2023/06/21 09:37:09;;;;;;;17.60;16.00;;;;;;;29.17;48.02;99423.08;435639;1251;139661;-68
2023/06/21 09:47:13;;;;;;;15.80;14.30;;;;;;;29.35;47.41;99421.55;435922;1255;139481;-67
2023/06/21 09:57:16;;;;;;;17.80;16.20;;;;;;;29.42;47.01;99419.35;435737;1256;139182;-68
2023/06/21 10:07:20;;;;;;;15.70;14.40;;;;;;;29.30;47.09;99422.06;435703;1256;139455;-67
2023/06/21 10:17:23;;;;;;;16.70;15.00;;;;;;;29.00;47.55;99418.16;435870;1255;138604;-68
2023/06/21 10:27:27;;;;;;;15.90;14.30;;;;;;;28.74;48.08;99422.10;436012;1256;141349;-67
2023/06/21 10:37:38;;;;;;;17.00;15.30;;;;;;;28.41;48.93;99428.14;436462;1251;140450;-67
2023/06/21 10:47:42;;;;;;;16.50;15.10;;;;;;;28.38;49.57;99436.14;436047;1254;139429;-67
2023/06/21 10:57:46;;;;;;;14.80;13.50;;;;;;;28.34;49.95;99446.80;435976;1254;139022;-67
2023/06/21 11:07:54;;;;;;;21.60;14.40;;;;;;;28.08;50.76;99446.79;435616;1254;140169;-67
2023/06/21 11:18:06;;;;;;;14.00;12.80;;;;;;;27.92;51.01;99444.40;436787;1251;140842;-66
2023/06/21 11:28:26;;;;;;;13.50;11.90;;;;;;;28.05;50.93;99440.00;436016;1251;138523;-69
2023/06/21 11:38:30;;;;;;;26.10;17.10;;;;;;;28.43;50.93;99433.77;436427;1251;140489;-67
2023/06/21 11:48:39;;;;;;;17.70;15.60;;;;;;;28.77;50.26;99435.45;435995;1251;140591;-69
2023/06/21 11:58:42;;;;;;;18.60;14.30;;;;;;;29.02;49.95;99445.14;436230;1254;139104;-67
2023/06/21 12:08:45;;;;;;;15.10;13.70;;;;;;;29.30;49.08;99453.42;436439;1251;141463;-68
2023/06/21 12:18:48;;;;;;;16.70;15.20;;;;;;;29.64;48.32;99451.59;435849;1251;140330;-69
2023/06/21 12:28:51;;;;;;;15.60;13.90;;;;;;;29.64;47.88;99452.29;435879;1251;138822;-69
2023/06/21 12:38:57;;;;;;;59.00;28.20;;;;;;;29.05;48.35;99469.31;436220;1254;139609;-68
2023/06/21 12:49:00;;;;;;;16.70;15.00;;;;;;;28.99;48.96;99486.50;436634;1254;141110;-69
2023/06/21 12:59:04;;;;;;;17.50;15.50;;;;;;;29.43;48.70;99494.48;436706;1250;140902;-67
2023/06/21 13:09:08;;;;;;;17.70;16.00;;;;;;;29.37;49.38;99500.11;436667;1251;139141;-68
2023/06/21 13:19:11;;;;;;;17.70;16.20;;;;;;;29.51;49.67;99490.98;436385;1251;138533;-67
2023/06/21 13:29:14;;;;;;;19.50;16.90;;;;;;;29.44;49.72;99486.02;436264;1254;138997;-69
2023/06/21 13:39:17;;;;;;;18.90;17.20;;;;;;;29.01;51.84;99488.44;436089;1254;139595;-68
2023/06/21 13:49:21;;;;;;;15.30;13.50;;;;;;;28.36;53.94;99499.73;436343;1251;140382;-68
2023/06/21 13:59:24;;;;;;;13.20;11.50;;;;;;;27.41;55.84;99495.34;436065;1254;139967;-67
2023/06/21 14:09:28;;;;;;;14.80;11.70;;;;;;;26.67;58.26;99494.27;435929;1253;139061;-67
2023/06/21 14:19:31;;;;;;;15.70;13.50;;;;;;;26.27;59.69;99486.89;436231;1251;140447;-67
2023/06/21 14:29:34;;;;;;;15.20;14.00;;;;;;;26.21;60.37;99481.45;436504;1254;139625;-68
2023/06/21 14:39:38;;;;;;;15.40;14.00;;;;;;;26.42;61.00;99465.34;436377;1250;140326;-67
2023/06/21 14:49:41;;;;;;;14.80;13.30;;;;;;;27.09;60.28;99449.81;437484;1253;139886;-67
2023/06/21 14:59:44;;;;;;;17.20;15.50;;;;;;;27.23;59.24;99445.20;436100;1254;139599;-68
2023/06/21 15:09:47;;;;;;;11.10;10.20;;;;;;;27.34;58.16;99441.02;436738;1251;139769;-66
2023/06/21 15:19:50;;;;;;;12.00;11.00;;;;;;;27.18;57.11;99433.19;435924;1251;140292;-66
2023/06/21 15:29:53;;;;;;;12.50;11.50;;;;;;;26.79;57.24;99425.28;435930;1251;139100;-67
2023/06/21 15:39:57;;;;;;;21.90;19.20;;;;;;;26.64;57.84;99425.84;435965;1250;138569;-67
2023/06/21 15:50:01;;;;;;;20.00;17.90;;;;;;;26.57;58.50;99448.16;436294;1254;140295;-64
2023/06/21 16:00:07;;;;;;;16.70;15.20;;;;;;;26.63;59.06;99482.21;436115;1253;139906;-66
2023/06/21 16:10:10;;;;;;;15.40;13.90;;;;;;;27.01;58.93;99480.71;436547;1252;139055;-66
2023/06/21 16:20:13;;;;;;;16.30;14.90;;;;;;;27.18;58.79;99475.61;436176;1251;140275;-66
2023/06/21 16:30:17;;;;;;;17.10;15.40;;;;;;;26.98;59.08;99472.56;436044;1251;140182;-66
2023/06/21 16:40:20;;;;;;;17.90;16.10;;;;;;;26.65;59.94;99462.36;436086;1253;139530;-67
2023/06/21 16:50:23;;;;;;;17.90;16.20;;;;;;;26.17;61.30;99443.02;436090;1251;138646;-66
2023/06/21 17:00:27;;;;;;;18.70;17.10;;;;;;;25.77;62.43;99436.04;435942;1251;141848;-65
2023/06/21 17:10:30;;;;;;;19.70;18.00;;;;;;;25.57;63.68;99439.90;436408;1250;140675;-66
2023/06/21 17:20:33;;;;;;;20.10;18.20;;;;;;;25.48;64.66;99442.83;436289;1250;139911;-66
2023/06/21 17:30:36;;;;;;;20.00;18.10;;;;;;;25.35;65.53;99446.48;436146;1253;139610;-65
2023/06/21 17:40:39;;;;;;;21.10;18.90;;;;;;;25.44;66.22;99466.12;435976;1251;139167;-65
2023/06/21 17:50:42;;;;;;;20.30;18.10;;;;;;;25.63;66.44;99473.02;435936;1251;139482;-65
2023/06/21 18:00:45;;;;;;;17.80;16.30;;;;;;;25.66;66.78;99458.27;436773;1255;139976;-64
2023/06/21 18:10:48;;;;;;;16.80;15.20;;;;;;;25.50;66.95;99444.16;436418;1251;141125;-65
2023/06/21 18:20:51;;;;;;;16.90;15.40;;;;;;;25.35;67.22;99444.16;436364;1250;139412;-67
2023/06/21 18:30:55;;;;;;;14.10;12.90;;;;;;;25.04;67.82;99445.72;435922;1251;141578;-66
2023/06/21 18:40:58;;;;;;;14.40;13.20;;;;;;;24.77;68.21;99435.58;437194;1253;140169;-68
2023/06/21 18:51:01;;;;;;;14.50;13.00;;;;;;;24.39;68.36;99419.15;436770;1250;139469;-67
2023/06/21 19:01:04;;;;;;;13.80;12.60;;;;;;;24.03;69.02;99426.77;436451;1251;139512;-67
2023/06/21 19:11:07;;;;;;;15.60;14.00;;;;;;;23.72;69.98;99425.91;436112;1253;139934;-61
2023/06/21 19:21:10;;;;;;;16.70;15.10;;;;;;;23.44;70.66;99434.98;436302;1253;141087;-61
2023/06/21 19:31:14;;;;;;;17.90;16.20;;;;;;;23.25;71.79;99448.45;436222;1251;168505;-60
2023/06/21 19:41:17;;;;;;;17.00;15.60;;;;;;;23.17;72.84;99452.67;436642;1254;139432;-61
2023/06/21 19:51:20;;;;;;;18.00;16.40;;;;;;;23.09;73.67;99463.36;436560;1255;139298;-61
2023/06/21 20:01:23;;;;;;;19.30;17.80;;;;;;;22.97;74.87;99471.42;436406;1254;139894;-60
2023/06/21 20:11:27;;;;;;;19.00;17.30;;;;;;;22.84;75.71;99472.21;436717;1254;139262;-62
2023/06/21 20:21:30;;;;;;;20.50;18.60;;;;;;;22.69;76.92;99494.49;436693;1252;140138;-61
2023/06/21 20:31:33;;;;;;;20.20;18.40;;;;;;;22.60;78.04;99514.93;436220;1254;139798;-61
2023/06/21 20:41:40;;;;;;;21.30;19.40;;;;;;;22.51;79.02;99507.64;436941;1255;140222;-61
2023/06/21 20:51:43;;;;;;;22.50;20.30;;;;;;;22.42;79.76;99501.14;436510;1254;140292;-61
2023/06/21 21:01:50;;;;;;;20.40;18.50;;;;;;;22.25;80.48;99493.38;436313;1251;139703;-60
2023/06/21 21:11:53;;;;;;;22.40;20.20;;;;;;;22.05;81.60;99504.09;436252;1253;139318;-60
2023/06/21 21:21:56;;;;;;;22.80;20.70;;;;;;;21.87;82.91;99530.88;436516;1253;139393;-61
2023/06/21 21:32:02;;;;;;;23.30;21.20;;;;;;;21.91;84.42;99553.41;436548;1254;142467;-61
2023/06/21 21:42:07;;;;;;;24.20;21.80;;;;;;;22.12;85.08;99558.20;436752;1250;139741;-63
2023/06/21 21:52:10;;;;;;;24.70;22.40;;;;;;;22.22;84.71;99555.48;437039;1255;140651;-61
2023/06/21 22:02:13;;;;;;;23.80;21.70;;;;;;;22.12;84.90;99555.35;437042;1251;139393;-60
2023/06/21 22:12:16;;;;;;;24.20;22.00;;;;;;;22.02;85.49;99561.62;436877;1256;139290;-59
2023/06/21 22:22:19;;;;;;;23.50;21.40;;;;;;;21.93;86.03;99560.53;436985;1253;139197;-61
2023/06/21 22:32:22;;;;;;;23.60;21.60;;;;;;;21.83;86.50;99584.03;436279;1255;141176;-60
2023/06/21 22:42:26;;;;;;;26.20;23.90;;;;;;;21.76;87.00;99586.40;436482;1251;141410;-61
2023/06/21 22:52:29;;;;;;;27.00;24.40;;;;;;;21.55;87.37;99593.84;436294;1256;139906;-61
2023/06/21 23:02:32;;;;;;;24.90;22.70;;;;;;;21.34;87.97;99583.19;436418;1255;140824;-60
2023/06/21 23:12:38;;;;;;;23.30;21.20;;;;;;;21.30;88.69;99587.33;436420;1254;140673;-60
2023/06/21 23:22:43;;;;;;;24.60;22.50;;;;;;;21.23;88.26;99591.25;437485;1255;140169;-60
2023/06/21 23:32:47;;;;;;;22.90;20.90;;;;;;;20.94;88.15;99589.19;436924;1254;141138;-61
2023/06/21 23:42:51;;;;;;;23.20;22.10;;;;;;;20.74;88.75;99579.42;436320;1256;140591;-60
2023/06/21 23:52:54;;;;;;;22.10;19.80;;;;;;;20.50;88.89;99589.98;436467;1254;139981;-61
